Terminal Aerodrome Forecast
Issued by NWS

Home | Current Version | Previous Version | Graphics & Text | Print | Product List | Glossary On
Versions: 1 2 3 4 5 6 7 8 9 10 11 12 13
000
FTUS43 KICT 292338
TAFCNU
TAF
KCNU 292338Z 3000/3024 05009KT P6SM SCT050 BKN100
     FM300300 07008KT P6SM VCSH BKN070
     FM301600 10006KT P6SM OVC080=

USA.gov is the U.S. government's official web portal to all federal, state and local government web resources and services.